Nyk Deneb — 3EOF8 — position and weather

sailwx.info

Track history (hours):
 
Tides and Currents Weather Stations Pressure Air Temp Water Temp Dewpoint Dewpoint Depression Visibility Wind Speed Wind Dir Waves Ship Positions

Nyk Deneb

Last reported at 2017-Jan-15 10:29 UTC. Time now 2017-Jan-23 04:27 UTC.
Position N 49°56' W 004°38'.

Length 294 m; draft 12.4 m.

Type: Ship (hazmat cat B). MMSI: 355717000.

Date/timePositionNaut miles runAvg speedWind from/ knotsBaromVisibWave heightAir tempDewpointWater temp
2017-Jan-15 10:29N 49°56' W 004°38'1718.3
2017-Jan-15 09:33N 49°60' W 004°12'1717.2
2017-Jan-15 08:34N 50°05' W 003°47'1915.6
2017-Jan-15 07:21N 50°18' W 003°27'810.0
2017-Jan-15 06:33N 50°25' W 003°21'1616.1
2017-Jan-15 05:33N 50°24' W 002°56'4220.9
2017-Jan-15 03:32N 50°23' W 001°50'2222.0
2017-Jan-15 02:33N 50°22' W 001°16'2720.3
2017-Jan-15 01:14N 50°26' W 000°34'1318.7
2017-Jan-15 00:33N 50°29' W 000°15'1817.7
2017-Jan-14 23:33N 50°33' E 000°12'1716.7
2017-Jan-14 22:33N 50°38' E 000°38'1818.2
2017-Jan-14 21:33N 50°48' E 001°02'2121.1
2017-Jan-14 20:33N 51°01' E 001°27'2221.7
2017-Jan-14 19:34N 51°18' E 001°50'1919.5
2017-Jan-14 18:34N 51°33' E 002°10'2318.1
2017-Jan-14 17:18N 51°50' E 002°34'2915.9
2017-Jan-14 15:30N 52°03' E 003°16'1516.5
2017-Jan-14 14:34N 52°03' E 003°41'1110.9
2017-Jan-14 13:33N 52°02' E 003°58'4 3.9
2017-Jan-14 12:34N 51°58' E 004°02'2 1.8
2017-Jan-14 11:32N 51°57' E 003°59'0 0.0
2017-Jan-14 10:32N 51°57' E 003°59'0 0.0
2017-Jan-14 09:32N 51°57' E 003°59'0 0.0
2017-Jan-14 08:32N 51°57' E 003°59'0 0.0
2017-Jan-14 07:32N 51°57' E 003°59'0 0.0
2017-Jan-14 06:32N 51°57' E 003°60'0 0.0
2017-Jan-14 05:32N 51°57' E 003°59'0 0.0
2017-Jan-14 04:32N 51°57' E 003°59'0 0.0
2017-Jan-14 03:32N 51°57' E 003°60'0 0.0
2017-Jan-13 23:32N 51°57' E 003°59'0 0.0
2017-Jan-13 22:32N 51°57' E 003°59'0 0.0
2017-Jan-13 21:32N 51°57' E 003°59'0 0.0
2017-Jan-13 20:32N 51°57' E 003°59'0 0.0
2017-Jan-13 19:32N 51°57' E 003°59'0 0.0
2017-Jan-13 18:32N 51°57' E 003°59'0 0.0
2017-Jan-13 17:32N 51°57' E 003°59'0 0.0
2017-Jan-13 16:32N 51°57' E 003°59'0 0.0
2017-Jan-13 15:32N 51°57' E 003°59'0 0.0
2017-Jan-13 14:32N 51°57' E 003°59'0 0.0
2017-Jan-13 13:32N 51°57' E 003°59'0 0.0
2017-Jan-13 12:32N 51°57' E 003°59'0 0.0
2017-Jan-13 11:32N 51°57' E 003°59'0 0.1
2017-Jan-13 10:29N 51°57' E 003°60'0 0.0
2017-Jan-13 09:32N 51°57' E 003°59'0 0.0
2017-Jan-13 08:32N 51°57' E 003°59'0 0.0
2017-Jan-13 07:32N 51°57' E 003°59'0 0.0
2017-Jan-13 06:32N 51°57' E 003°59'0 0.0
2017-Jan-13 05:32N 51°57' E 003°60'0 0.0
2017-Jan-13 04:32N 51°57' E 003°59'0 0.0
2017-Jan-13 03:32N 51°57' E 003°59'0 0.0
2017-Jan-13 02:32N 51°57' E 003°59'0 0.0
2017-Jan-13 01:32N 51°57' E 003°59'0 0.0
2017-Jan-13 00:32N 51°57' E 003°60'0 0.0
2017-Jan-12 23:32N 51°57' E 003°59'0 0.0
2017-Jan-12 22:32N 51°57' E 003°60'1 1.4
2017-Jan-12 21:34N 51°58' E 003°60'1 1.5
2017-Jan-12 20:34N 51°60' E 004°01'10 9.7
2017-Jan-12 19:34N 52°03' E 003°47'9 9.5
2017-Jan-12 18:33N 52°12' E 003°40'0 0.3
2017-Jan-12 17:33N 52°12' E 003°40'1 0.5
2017-Jan-12 16:33N 52°12' E 003°39'1 0.5
2017-Jan-12 15:34N 52°12' E 003°38'6 5.6
2017-Jan-12 14:33N 52°16' E 003°45'6 5.7
2017-Jan-12 13:34N 52°21' E 003°48'8 8.1
2017-Jan-12 12:34N 52°29' E 003°51'1010.2
2017-Jan-12 11:33N 52°39' E 003°53'1110.7
2017-Jan-12 10:34N 52°49' E 003°58'1010.2
2017-Jan-12 09:33N 52°59' E 004°04'1010.1
2017-Jan-12 08:33N 53°05' E 004°17'1010.1
2017-Jan-12 07:33N 53°14' E 004°27'1110.8
2017-Jan-12 06:32N 53°24' E 004°35'9 9.1
2017-Jan-12 05:31N 53°30' E 004°46'96 9.2
2017-Jan-11 19:08N 53°58' E 007°21'5 9.2
2017-Jan-11 18:33N 53°59' E 007°30'9 8.2
2017-Jan-11 17:25N 53°54' E 007°44'1011.6
2017-Jan-11 16:33N 53°51' E 007°60'1818.3
2017-Jan-11 15:33N 53°39' E 008°24'6 6.3
2017-Jan-11 14:31N 53°35' E 008°32'0 0.0
2017-Jan-11 13:31N 53°35' E 008°32'0 0.0
2017-Jan-11 12:34N 53°35' E 008°32'0 0.0
2017-Jan-11 11:33N 53°35' E 008°32'0 0.0
2017-Jan-11 10:34N 53°35' E 008°32'0 0.0
2017-Jan-11 09:34N 53°35' E 008°32'0 0.0
2017-Jan-11 08:33N 53°35' E 008°32'0 0.0
2017-Jan-11 07:33N 53°35' E 008°32'0 0.0
2017-Jan-11 06:33N 53°35' E 008°32'0 0.0
2017-Jan-11 05:33N 53°35' E 008°32'0 0.0
2017-Jan-11 04:34N 53°35' E 008°32'0 0.0
2017-Jan-11 03:33N 53°35' E 008°32'0 0.0
2017-Jan-11 02:33N 53°35' E 008°32'0 0.0
2017-Jan-11 01:33N 53°35' E 008°32'0 0.0
2017-Jan-11 00:34N 53°35' E 008°32'0 0.0
2017-Jan-10 23:34N 53°35' E 008°32'0 0.0
2017-Jan-10 22:33N 53°35' E 008°32'0 0.0
2017-Jan-10 21:33N 53°35' E 008°32'8 8.3
2017-Jan-10 20:33N 53°41' E 008°22'1716.7
2017-Jan-10 19:33N 53°51' E 007°59'1413.2
2017-Jan-10 18:29N 53°52' E 007°35'2 1.6
2017-Jan-10 17:32N 53°52' E 007°33'1 1.3
2017-Jan-10 16:33N 53°51' E 007°31'1 1.3
2017-Jan-10 15:32N 53°51' E 007°29'0 0.4
2017-Jan-10 14:33N 53°51' E 007°29'1 1.0
2017-Jan-10 13:33N 53°51' E 007°31'9710.7
2017-Jan-10 04:33N 53°26' E 004°53'1713.5
2017-Jan-10 03:16N 53°14' E 004°33'1114.4
2017-Jan-10 02:31N 53°04' E 004°24'1414.3
2017-Jan-10 01:33N 52°52' E 004°14'1414.5
2017-Jan-10 00:33N 52°40' E 003°59'1514.4
2017-Jan-09 23:32N 52°29' E 003°45'1414.2
2017-Jan-09 22:33N 52°16' E 003°34'1111.4
2017-Jan-09 21:33N 52°06' E 003°27'11 8.6
2017-Jan-09 20:15N 51°55' E 003°22'6 8.1
2017-Jan-09 19:33N 51°50' E 003°19'8 7.7
2017-Jan-09 18:32N 51°43' E 003°14'1414.4
2017-Jan-09 17:34N 51°30' E 003°04'1010.2
2017-Jan-09 16:34N 51°25' E 003°18'1514.5
2017-Jan-09 15:33N 51°26' E 003°41'1110.5
2017-Jan-09 14:33N 51°23' E 003°57'9 8.9
2017-Jan-09 13:34N 51°24' E 004°11'5 5.0
2017-Jan-09 12:32N 51°20' E 004°17'0 0.0
2017-Jan-09 11:33N 51°20' E 004°17'0 0.0
2017-Jan-09 10:32N 51°20' E 004°17'0 0.0
2017-Jan-09 09:33N 51°20' E 004°17'0 0.0
2017-Jan-09 08:31N 51°20' E 004°17'0 0.0
2017-Jan-09 07:33N 51°20' E 004°17'0 0.0
2017-Jan-09 06:33N 51°20' E 004°17'0 0.0
2017-Jan-09 05:34N 51°20' E 004°17'0 0.0
2017-Jan-09 04:34N 51°20' E 004°17'0 0.0
2017-Jan-09 03:34N 51°20' E 004°17'0 0.0
2017-Jan-09 02:34N 51°20' E 004°17'0 0.0
2017-Jan-09 01:33N 51°20' E 004°17'1 1.1
2017-Jan-09 00:33N 51°21' E 004°15'7 7.0
2017-Jan-08 23:33N 51°22' E 004°04'6 5.6
2017-Jan-08 22:33N 51°22' E 003°55'10 9.7
2017-Jan-08 21:33N 51°26' E 003°41'1212.0
2017-Jan-08 20:33N 51°24' E 003°22'1817.8
2017-Jan-08 19:34N 51°25' E 002°54'1010.1
2017-Jan-08 18:33N 51°22' E 002°38'5 4.6
2017-Jan-08 17:34N 51°22' E 002°31'7 6.6
2017-Jan-08 16:34N 51°19' E 002°21'9 8.7
2017-Jan-08 15:34N 51°15' E 002°09'1212.1
2017-Jan-08 14:34N 51°09' E 001°52'1212.1
2017-Jan-08 13:34N 51°01' E 001°38'1312.6
2017-Jan-08 12:33N 50°51' E 001°26'1312.7
2017-Jan-08 11:33N 50°39' E 001°17'2612.9
2017-Jan-08 09:33N 50°27' E 000°42'1313.0
2017-Jan-08 08:33N 50°23' E 000°22'1313.2
2017-Jan-08 07:33N 50°21' E 000°02'1313.2
2017-Jan-08 06:33N 50°25' W 000°17'1313.5
2017-Jan-08 05:34N 50°32' W 000°35'1 1.3
2017-Jan-08 04:34N 50°32' W 000°37'2 2.1
2017-Jan-08 03:33N 50°31' W 000°40'2 2.4
2017-Jan-08 02:34N 50°31' W 000°44'2 2.1
2017-Jan-08 01:33N 50°31' W 000°47'1 1.3
2017-Jan-08 00:34N 50°31' W 000°49'0 0.4
2017-Jan-07 23:33N 50°31' W 000°50'1 0.6
2017-Jan-07 22:33N 50°31' W 000°49'1 1.3
2017-Jan-07 21:34N 50°32' W 000°47'2 1.6
2017-Jan-07 20:34N 50°33' W 000°45'1 1.5
2017-Jan-07 19:33N 50°34' W 000°46'9 9.4
2017-Jan-07 18:34N 50°41' W 000°56'1312.6
2017-Jan-07 17:34N 50°46' W 001°14'8 7.6
2017-Jan-07 16:34N 50°52' W 001°22'5 4.6
2017-Jan-07 15:33N 50°55' W 001°28'0 0.0
2017-Jan-07 14:30N 50°55' W 001°28'0 0.0
2017-Jan-07 13:12N 50°55' W 001°28'0 0.0
2017-Jan-07 12:27N 50°55' W 001°28'0 0.0
2017-Jan-07 08:30N 50°55' W 001°28'0 0.0
2017-Jan-07 06:24N 50°55' W 001°28'0 0.0
2017-Jan-07 04:27N 50°55' W 001°28'0 0.0
2017-Jan-06 21:24N 50°55' W 001°28'0 0.0
2017-Jan-06 17:33N 50°55' W 001°28'0 0.0
2017-Jan-06 16:33N 50°55' W 001°28'2 2.0
2017-Jan-06 15:34N 50°54' W 001°25'7 7.5
2017-Jan-06 14:34N 50°48' W 001°18'1212.3
2017-Jan-06 13:33N 50°43' W 001°00'7 7.3
2017-Jan-06 12:33N 50°36' W 000°58'8 7.7
2017-Jan-06 11:34N 50°30' W 001°06'2019.6
2017-Jan-06 10:33N 50°24' W 001°36'2618.9
2017-Jan-06 09:10N 50°18' W 002°16'1015.8
2017-Jan-06 08:34N 50°15' W 002°30'1817.5
2017-Jan-06 07:34N 50°10' W 002°56'1817.9
2017-Jan-06 06:33N 50°05' W 003°23'1919.2
2017-Jan-06 05:33N 50°01' W 003°52'1919.5
2017-Jan-06 04:34N 49°55' W 004°21'1919.4
2017-Jan-06 03:34N 49°50' W 004°50'2019.4
2017-Jan-06 02:33N 49°46' W 005°20'2019.6
2017-Jan-06 01:31N 49°41' W 005°50'1919.5
2017-Jan-06 00:32N 49°38' W 006°20'  
Track history (hours):
 
Tides and Currents Weather Stations Pressure Air Temp Water Temp Dewpoint Dewpoint Depression Visibility Wind Speed Wind Dir Waves Ship Positions

Nyk Deneb

Last reported at 2017-Jan-15 10:29 UTC. Time now 2017-Jan-23 04:27 UTC.
Position N 49°56' W 004°38'.

Length 294 m; draft 12.4 m.

Type: Ship (hazmat cat B). MMSI: 355717000.

Date/timePositionNaut miles runAvg speedWind from/ knotsBaromVisibWave heightAir tempDewpointWater temp
2017-Jan-15 10:29N 49°56' W 004°38'1718.3
2017-Jan-15 09:33N 49°60' W 004°12'1717.2
2017-Jan-15 08:34N 50°05' W 003°47'1915.6
2017-Jan-15 07:21N 50°18' W 003°27'810.0
2017-Jan-15 06:33N 50°25' W 003°21'1616.1
2017-Jan-15 05:33N 50°24' W 002°56'4220.9
2017-Jan-15 03:32N 50°23' W 001°50'2222.0
2017-Jan-15 02:33N 50°22' W 001°16'2720.3
2017-Jan-15 01:14N 50°26' W 000°34'1318.7
2017-Jan-15 00:33N 50°29' W 000°15'1817.7
2017-Jan-14 23:33N 50°33' E 000°12'1716.7
2017-Jan-14 22:33N 50°38' E 000°38'1818.2
2017-Jan-14 21:33N 50°48' E 001°02'2121.1
2017-Jan-14 20:33N 51°01' E 001°27'2221.7
2017-Jan-14 19:34N 51°18' E 001°50'1919.5
2017-Jan-14 18:34N 51°33' E 002°10'2318.1
2017-Jan-14 17:18N 51°50' E 002°34'2915.9
2017-Jan-14 15:30N 52°03' E 003°16'1516.5
2017-Jan-14 14:34N 52°03' E 003°41'1110.9
2017-Jan-14 13:33N 52°02' E 003°58'4 3.9
2017-Jan-14 12:34N 51°58' E 004°02'2 1.8
2017-Jan-14 11:32N 51°57' E 003°59'0 0.0
2017-Jan-14 10:32N 51°57' E 003°59'0 0.0
2017-Jan-14 09:32N 51°57' E 003°59'0 0.0
2017-Jan-14 08:32N 51°57' E 003°59'0 0.0
2017-Jan-14 07:32N 51°57' E 003°59'0 0.0
2017-Jan-14 06:32N 51°57' E 003°60'0 0.0
2017-Jan-14 05:32N 51°57' E 003°59'0 0.0
2017-Jan-14 04:32N 51°57' E 003°59'0 0.0
2017-Jan-14 03:32N 51°57' E 003°60'0 0.0
2017-Jan-13 23:32N 51°57' E 003°59'0 0.0
2017-Jan-13 22:32N 51°57' E 003°59'0 0.0
2017-Jan-13 21:32N 51°57' E 003°59'0 0.0
2017-Jan-13 20:32N 51°57' E 003°59'0 0.0
2017-Jan-13 19:32N 51°57' E 003°59'0 0.0
2017-Jan-13 18:32N 51°57' E 003°59'0 0.0
2017-Jan-13 17:32N 51°57' E 003°59'0 0.0
2017-Jan-13 16:32N 51°57' E 003°59'0 0.0
2017-Jan-13 15:32N 51°57' E 003°59'0 0.0
2017-Jan-13 14:32N 51°57' E 003°59'0 0.0
2017-Jan-13 13:32N 51°57' E 003°59'0 0.0
2017-Jan-13 12:32N 51°57' E 003°59'0 0.0
2017-Jan-13 11:32N 51°57' E 003°59'0 0.1
2017-Jan-13 10:29N 51°57' E 003°60'0 0.0
2017-Jan-13 09:32N 51°57' E 003°59'0 0.0
2017-Jan-13 08:32N 51°57' E 003°59'0 0.0
2017-Jan-13 07:32N 51°57' E 003°59'0 0.0
2017-Jan-13 06:32N 51°57' E 003°59'0 0.0
2017-Jan-13 05:32N 51°57' E 003°60'0 0.0
2017-Jan-13 04:32N 51°57' E 003°59'0 0.0
2017-Jan-13 03:32N 51°57' E 003°59'0 0.0
2017-Jan-13 02:32N 51°57' E 003°59'0 0.0
2017-Jan-13 01:32N 51°57' E 003°59'0 0.0
2017-Jan-13 00:32N 51°57' E 003°60'0 0.0
2017-Jan-12 23:32N 51°57' E 003°59'0 0.0
2017-Jan-12 22:32N 51°57' E 003°60'1 1.4
2017-Jan-12 21:34N 51°58' E 003°60'1 1.5
2017-Jan-12 20:34N 51°60' E 004°01'10 9.7
2017-Jan-12 19:34N 52°03' E 003°47'9 9.5
2017-Jan-12 18:33N 52°12' E 003°40'0 0.3
2017-Jan-12 17:33N 52°12' E 003°40'1 0.5
2017-Jan-12 16:33N 52°12' E 003°39'1 0.5
2017-Jan-12 15:34N 52°12' E 003°38'6 5.6
2017-Jan-12 14:33N 52°16' E 003°45'6 5.7
2017-Jan-12 13:34N 52°21' E 003°48'8 8.1
2017-Jan-12 12:34N 52°29' E 003°51'1010.2
2017-Jan-12 11:33N 52°39' E 003°53'1110.7
2017-Jan-12 10:34N 52°49' E 003°58'1010.2
2017-Jan-12 09:33N 52°59' E 004°04'1010.1
2017-Jan-12 08:33N 53°05' E 004°17'1010.1
2017-Jan-12 07:33N 53°14' E 004°27'1110.8
2017-Jan-12 06:32N 53°24' E 004°35'9 9.1
2017-Jan-12 05:31N 53°30' E 004°46'96 9.2
2017-Jan-11 19:08N 53°58' E 007°21'5 9.2
2017-Jan-11 18:33N 53°59' E 007°30'9 8.2
2017-Jan-11 17:25N 53°54' E 007°44'1011.6
2017-Jan-11 16:33N 53°51' E 007°60'1818.3
2017-Jan-11 15:33N 53°39' E 008°24'6 6.3
2017-Jan-11 14:31N 53°35' E 008°32'0 0.0
2017-Jan-11 13:31N 53°35' E 008°32'0 0.0
2017-Jan-11 12:34N 53°35' E 008°32'0 0.0
2017-Jan-11 11:33N 53°35' E 008°32'0 0.0
2017-Jan-11 10:34N 53°35' E 008°32'0 0.0
2017-Jan-11 09:34N 53°35' E 008°32'0 0.0
2017-Jan-11 08:33N 53°35' E 008°32'0 0.0
2017-Jan-11 07:33N 53°35' E 008°32'0 0.0
2017-Jan-11 06:33N 53°35' E 008°32'0 0.0
2017-Jan-11 05:33N 53°35' E 008°32'0 0.0
2017-Jan-11 04:34N 53°35' E 008°32'0 0.0
2017-Jan-11 03:33N 53°35' E 008°32'0 0.0
2017-Jan-11 02:33N 53°35' E 008°32'0 0.0
2017-Jan-11 01:33N 53°35' E 008°32'0 0.0
2017-Jan-11 00:34N 53°35' E 008°32'0 0.0
2017-Jan-10 23:34N 53°35' E 008°32'0 0.0
2017-Jan-10 22:33N 53°35' E 008°32'0 0.0
2017-Jan-10 21:33N 53°35' E 008°32'8 8.3
2017-Jan-10 20:33N 53°41' E 008°22'1716.7
2017-Jan-10 19:33N 53°51' E 007°59'1413.2
2017-Jan-10 18:29N 53°52' E 007°35'2 1.6
2017-Jan-10 17:32N 53°52' E 007°33'1 1.3
2017-Jan-10 16:33N 53°51' E 007°31'1 1.3
2017-Jan-10 15:32N 53°51' E 007°29'0 0.4
2017-Jan-10 14:33N 53°51' E 007°29'1 1.0
2017-Jan-10 13:33N 53°51' E 007°31'9710.7
2017-Jan-10 04:33N 53°26' E 004°53'1713.5
2017-Jan-10 03:16N 53°14' E 004°33'1114.4
2017-Jan-10 02:31N 53°04' E 004°24'1414.3
2017-Jan-10 01:33N 52°52' E 004°14'1414.5
2017-Jan-10 00:33N 52°40' E 003°59'1514.4
2017-Jan-09 23:32N 52°29' E 003°45'1414.2
2017-Jan-09 22:33N 52°16' E 003°34'1111.4
2017-Jan-09 21:33N 52°06' E 003°27'11 8.6
2017-Jan-09 20:15N 51°55' E 003°22'6 8.1
2017-Jan-09 19:33N 51°50' E 003°19'8 7.7
2017-Jan-09 18:32N 51°43' E 003°14'1414.4
2017-Jan-09 17:34N 51°30' E 003°04'1010.2
2017-Jan-09 16:34N 51°25' E 003°18'1514.5
2017-Jan-09 15:33N 51°26' E 003°41'1110.5
2017-Jan-09 14:33N 51°23' E 003°57'9 8.9
2017-Jan-09 13:34N 51°24' E 004°11'5 5.0
2017-Jan-09 12:32N 51°20' E 004°17'0 0.0
2017-Jan-09 11:33N 51°20' E 004°17'0 0.0
2017-Jan-09 10:32N 51°20' E 004°17'0 0.0
2017-Jan-09 09:33N 51°20' E 004°17'0 0.0
2017-Jan-09 08:31N 51°20' E 004°17'0 0.0
2017-Jan-09 07:33N 51°20' E 004°17'0 0.0
2017-Jan-09 06:33N 51°20' E 004°17'0 0.0
2017-Jan-09 05:34N 51°20' E 004°17'0 0.0
2017-Jan-09 04:34N 51°20' E 004°17'0 0.0
2017-Jan-09 03:34N 51°20' E 004°17'0 0.0
2017-Jan-09 02:34N 51°20' E 004°17'0 0.0
2017-Jan-09 01:33N 51°20' E 004°17'1 1.1
2017-Jan-09 00:33N 51°21' E 004°15'7 7.0
2017-Jan-08 23:33N 51°22' E 004°04'6 5.6
2017-Jan-08 22:33N 51°22' E 003°55'10 9.7
2017-Jan-08 21:33N 51°26' E 003°41'1212.0
2017-Jan-08 20:33N 51°24' E 003°22'1817.8
2017-Jan-08 19:34N 51°25' E 002°54'1010.1
2017-Jan-08 18:33N 51°22' E 002°38'5 4.6
2017-Jan-08 17:34N 51°22' E 002°31'7 6.6
2017-Jan-08 16:34N 51°19' E 002°21'9 8.7
2017-Jan-08 15:34N 51°15' E 002°09'1212.1
2017-Jan-08 14:34N 51°09' E 001°52'1212.1
2017-Jan-08 13:34N 51°01' E 001°38'1312.6
2017-Jan-08 12:33N 50°51' E 001°26'1312.7
2017-Jan-08 11:33N 50°39' E 001°17'2612.9
2017-Jan-08 09:33N 50°27' E 000°42'1313.0
2017-Jan-08 08:33N 50°23' E 000°22'1313.2
2017-Jan-08 07:33N 50°21' E 000°02'1313.2
2017-Jan-08 06:33N 50°25' W 000°17'1313.5
2017-Jan-08 05:34N 50°32' W 000°35'1 1.3
2017-Jan-08 04:34N 50°32' W 000°37'2 2.1
2017-Jan-08 03:33N 50°31' W 000°40'2 2.4
2017-Jan-08 02:34N 50°31' W 000°44'2 2.1
2017-Jan-08 01:33N 50°31' W 000°47'1 1.3
2017-Jan-08 00:34N 50°31' W 000°49'0 0.4
2017-Jan-07 23:33N 50°31' W 000°50'1 0.6
2017-Jan-07 22:33N 50°31' W 000°49'1 1.3
2017-Jan-07 21:34N 50°32' W 000°47'2 1.6
2017-Jan-07 20:34N 50°33' W 000°45'1 1.5
2017-Jan-07 19:33N 50°34' W 000°46'9 9.4
2017-Jan-07 18:34N 50°41' W 000°56'1312.6
2017-Jan-07 17:34N 50°46' W 001°14'8 7.6
2017-Jan-07 16:34N 50°52' W 001°22'5 4.6
2017-Jan-07 15:33N 50°55' W 001°28'0 0.0
2017-Jan-07 14:30N 50°55' W 001°28'0 0.0
2017-Jan-07 13:12N 50°55' W 001°28'0 0.0
2017-Jan-07 12:27N 50°55' W 001°28'0 0.0
2017-Jan-07 08:30N 50°55' W 001°28'0 0.0
2017-Jan-07 06:24N 50°55' W 001°28'0 0.0
2017-Jan-07 04:27N 50°55' W 001°28'0 0.0
2017-Jan-06 21:24N 50°55' W 001°28'0 0.0
2017-Jan-06 17:33N 50°55' W 001°28'0 0.0
2017-Jan-06 16:33N 50°55' W 001°28'2 2.0
2017-Jan-06 15:34N 50°54' W 001°25'7 7.5
2017-Jan-06 14:34N 50°48' W 001°18'1212.3
2017-Jan-06 13:33N 50°43' W 001°00'7 7.3
2017-Jan-06 12:33N 50°36' W 000°58'8 7.7
2017-Jan-06 11:34N 50°30' W 001°06'2019.6
2017-Jan-06 10:33N 50°24' W 001°36'2618.9
2017-Jan-06 09:10N 50°18' W 002°16'1015.8
2017-Jan-06 08:34N 50°15' W 002°30'1817.5
2017-Jan-06 07:34N 50°10' W 002°56'1817.9
2017-Jan-06 06:33N 50°05' W 003°23'1919.2
2017-Jan-06 05:33N 50°01' W 003°52'1919.5
2017-Jan-06 04:34N 49°55' W 004°21'1919.4
2017-Jan-06 03:34N 49°50' W 004°50'2019.4
2017-Jan-06 02:33N 49°46' W 005°20'2019.6
2017-Jan-06 01:31N 49°41' W 005°50'1919.5
2017-Jan-06 00:32N 49°38' W 006°20'  

Dump ship's entire track history